sensor_id;sensor_type;location;lat;lon;timestamp;P1;durP1;ratioP1;P2;durP2;ratioP2
1026;SDS011;502;48.746;9.214;2024-03-02T00:00:39;14.87;;;10.80;;
1026;SDS011;502;48.746;9.214;2024-03-02T00:03:06;14.63;;;12.07;;
1026;SDS011;502;48.746;9.214;2024-03-02T00:05:34;13.87;;;10.57;;
1026;SDS011;502;48.746;9.214;2024-03-02T00:08:01;16.87;;;12.70;;
1026;SDS011;502;48.746;9.214;2024-03-02T00:10:30;17.47;;;12.50;;
1026;SDS011;502;48.746;9.214;2024-03-02T00:13:02;15.80;;;11.53;;
1026;SDS011;502;48.746;9.214;2024-03-02T00:15:40;15.03;;;11.30;;
1026;SDS011;502;48.746;9.214;2024-03-02T00:18:10;14.70;;;12.00;;
1026;SDS011;502;48.746;9.214;2024-03-02T00:20:37;17.93;;;12.03;;
1026;SDS011;502;48.746;9.214;2024-03-02T00:23:04;17.57;;;12.17;;
1026;SDS011;502;48.746;9.214;2024-03-02T00:25:36;14.90;;;11.50;;
1026;SDS011;502;48.746;9.214;2024-03-02T00:28:04;14.53;;;11.70;;
1026;SDS011;502;48.746;9.214;2024-03-02T00:30:44;15.20;;;11.67;;
1026;SDS011;502;48.746;9.214;2024-03-02T00:36:15;14.07;;;10.43;;
1026;SDS011;502;48.746;9.214;2024-03-02T00:38:44;14.03;;;10.60;;
1026;SDS011;502;48.746;9.214;2024-03-02T00:41:15;14.27;;;10.93;;
1026;SDS011;502;48.746;9.214;2024-03-02T00:43:44;15.30;;;10.70;;
1026;SDS011;502;48.746;9.214;2024-03-02T00:46:14;13.93;;;11.27;;
1026;SDS011;502;48.746;9.214;2024-03-02T00:48:46;15.47;;;12.03;;
1026;SDS011;502;48.746;9.214;2024-03-02T00:51:15;18.37;;;12.70;;
1026;SDS011;502;48.746;9.214;2024-03-02T00:53:41;17.47;;;11.93;;
1026;SDS011;502;48.746;9.214;2024-03-02T00:56:09;13.83;;;10.10;;
1026;SDS011;502;48.746;9.214;2024-03-02T00:58:35;16.23;;;11.13;;
1026;SDS011;502;48.746;9.214;2024-03-02T01:01:02;14.80;;;11.43;;
1026;SDS011;502;48.746;9.214;2024-03-02T01:03:30;13.60;;;11.20;;
1026;SDS011;502;48.746;9.214;2024-03-02T01:05:57;18.60;;;11.80;;
1026;SDS011;502;48.746;9.214;2024-03-02T01:08:23;13.70;;;10.13;;
1026;SDS011;502;48.746;9.214;2024-03-02T01:10:50;13.13;;;10.47;;
1026;SDS011;502;48.746;9.214;2024-03-02T01:13:17;14.70;;;10.97;;
1026;SDS011;502;48.746;9.214;2024-03-02T01:15:43;13.90;;;10.93;;
1026;SDS011;502;48.746;9.214;2024-03-02T01:18:10;16.70;;;10.10;;
1026;SDS011;502;48.746;9.214;2024-03-02T01:20:38;16.20;;;10.20;;
1026;SDS011;502;48.746;9.214;2024-03-02T01:23:04;14.20;;;10.47;;
1026;SDS011;502;48.746;9.214;2024-03-02T01:25:31;14.27;;;9.83;;
1026;SDS011;502;48.746;9.214;2024-03-02T01:27:57;12.70;;;9.50;;
1026;SDS011;502;48.746;9.214;2024-03-02T01:30:24;15.37;;;12.00;;
1026;SDS011;502;48.746;9.214;2024-03-02T01:32:50;14.87;;;10.47;;
1026;SDS011;502;48.746;9.214;2024-03-02T01:35:17;14.27;;;9.53;;
1026;SDS011;502;48.746;9.214;2024-03-02T01:37:45;12.50;;;10.00;;
1026;SDS011;502;48.746;9.214;2024-03-02T01:40:11;13.80;;;9.97;;
1026;SDS011;502;48.746;9.214;2024-03-02T01:42:38;12.07;;;9.60;;
1026;SDS011;502;48.746;9.214;2024-03-02T01:45:05;12.53;;;10.20;;
1026;SDS011;502;48.746;9.214;2024-03-02T01:47:32;12.47;;;9.93;;
1026;SDS011;502;48.746;9.214;2024-03-02T01:49:59;11.90;;;9.60;;
1026;SDS011;502;48.746;9.214;2024-03-02T01:52:26;13.10;;;9.90;;
1026;SDS011;502;48.746;9.214;2024-03-02T01:54:54;16.23;;;10.43;;
1026;SDS011;502;48.746;9.214;2024-03-02T01:57:21;14.23;;;10.50;;
1026;SDS011;502;48.746;9.214;2024-03-02T01:59:47;14.20;;;9.50;;
1026;SDS011;502;48.746;9.214;2024-03-02T02:02:15;10.97;;;9.00;;
1026;SDS011;502;48.746;9.214;2024-03-02T02:04:42;14.50;;;10.90;;
1026;SDS011;502;48.746;9.214;2024-03-02T02:07:09;14.73;;;10.17;;
1026;SDS011;502;48.746;9.214;2024-03-02T02:09:36;13.93;;;10.20;;
1026;SDS011;502;48.746;9.214;2024-03-02T02:12:04;12.07;;;9.60;;
1026;SDS011;502;48.746;9.214;2024-03-02T02:14:32;13.70;;;9.97;;
1026;SDS011;502;48.746;9.214;2024-03-02T02:16:58;15.70;;;10.83;;
1026;SDS011;502;48.746;9.214;2024-03-02T02:19:25;13.43;;;10.00;;
1026;SDS011;502;48.746;9.214;2024-03-02T02:21:52;11.60;;;8.30;;
1026;SDS011;502;48.746;9.214;2024-03-02T02:24:19;11.83;;;9.07;;
1026;SDS011;502;48.746;9.214;2024-03-02T02:26:45;16.23;;;11.13;;
1026;SDS011;502;48.746;9.214;2024-03-02T02:29:12;11.33;;;8.70;;
1026;SDS011;502;48.746;9.214;2024-03-02T02:31:39;14.73;;;9.73;;
1026;SDS011;502;48.746;9.214;2024-03-02T02:34:06;14.30;;;9.50;;
1026;SDS011;502;48.746;9.214;2024-03-02T02:36:33;13.93;;;10.37;;
1026;SDS011;502;48.746;9.214;2024-03-02T02:39:01;13.60;;;10.97;;
1026;SDS011;502;48.746;9.214;2024-03-02T02:41:32;10.73;;;8.53;;
1026;SDS011;502;48.746;9.214;2024-03-02T02:43:58;15.20;;;10.83;;
1026;SDS011;502;48.746;9.214;2024-03-02T02:46:25;14.30;;;10.63;;
1026;SDS011;502;48.746;9.214;2024-03-02T02:48:51;16.77;;;11.10;;
1026;SDS011;502;48.746;9.214;2024-03-02T02:51:18;14.60;;;9.47;;
1026;SDS011;502;48.746;9.214;2024-03-02T02:53:45;15.17;;;10.47;;
1026;SDS011;502;48.746;9.214;2024-03-02T02:56:13;13.83;;;9.73;;
1026;SDS011;502;48.746;9.214;2024-03-02T02:58:40;16.10;;;10.87;;
1026;SDS011;502;48.746;9.214;2024-03-02T03:01:07;15.30;;;9.90;;
1026;SDS011;502;48.746;9.214;2024-03-02T03:03:34;13.03;;;9.13;;
1026;SDS011;502;48.746;9.214;2024-03-02T03:06:00;11.27;;;10.07;;
1026;SDS011;502;48.746;9.214;2024-03-02T03:08:27;12.27;;;9.63;;
1026;SDS011;502;48.746;9.214;2024-03-02T03:10:54;14.93;;;11.07;;
1026;SDS011;502;48.746;9.214;2024-03-02T03:13:22;13.77;;;9.60;;
1026;SDS011;502;48.746;9.214;2024-03-02T03:15:48;15.37;;;11.00;;
1026;SDS011;502;48.746;9.214;2024-03-02T03:18:15;14.87;;;10.07;;
1026;SDS011;502;48.746;9.214;2024-03-02T03:20:41;13.73;;;10.03;;
1026;SDS011;502;48.746;9.214;2024-03-02T03:23:08;14.63;;;9.90;;
1026;SDS011;502;48.746;9.214;2024-03-02T03:25:34;14.60;;;10.50;;
1026;SDS011;502;48.746;9.214;2024-03-02T03:28:01;14.37;;;10.20;;
1026;SDS011;502;48.746;9.214;2024-03-02T03:30:29;14.90;;;10.00;;
1026;SDS011;502;48.746;9.214;2024-03-02T03:32:56;16.13;;;10.03;;
1026;SDS011;502;48.746;9.214;2024-03-02T03:35:22;13.43;;;10.13;;
1026;SDS011;502;48.746;9.214;2024-03-02T03:37:49;14.20;;;10.30;;
1026;SDS011;502;48.746;9.214;2024-03-02T03:40:15;12.37;;;9.30;;
1026;SDS011;502;48.746;9.214;2024-03-02T03:42:43;13.70;;;9.87;;
1026;SDS011;502;48.746;9.214;2024-03-02T03:45:10;12.47;;;10.37;;
1026;SDS011;502;48.746;9.214;2024-03-02T03:47:37;15.67;;;11.00;;
1026;SDS011;502;48.746;9.214;2024-03-02T03:50:04;12.37;;;9.20;;
1026;SDS011;502;48.746;9.214;2024-03-02T03:52:32;13.37;;;9.67;;
1026;SDS011;502;48.746;9.214;2024-03-02T03:54:59;12.10;;;9.90;;
1026;SDS011;502;48.746;9.214;2024-03-02T03:57:25;15.07;;;10.17;;
1026;SDS011;502;48.746;9.214;2024-03-02T03:59:52;13.57;;;9.83;;
1026;SDS011;502;48.746;9.214;2024-03-02T04:02:18;11.57;;;9.40;;
1026;SDS011;502;48.746;9.214;2024-03-02T04:04:46;14.50;;;9.60;;
1026;SDS011;502;48.746;9.214;2024-03-02T04:07:13;16.20;;;11.30;;
1026;SDS011;502;48.746;9.214;2024-03-02T04:09:39;15.20;;;10.47;;
1026;SDS011;502;48.746;9.214;2024-03-02T04:12:06;15.57;;;9.83;;
1026;SDS011;502;48.746;9.214;2024-03-02T04:14:33;16.07;;;10.90;;
1026;SDS011;502;48.746;9.214;2024-03-02T04:16:59;15.57;;;10.97;;
1026;SDS011;502;48.746;9.214;2024-03-02T04:19:26;11.90;;;9.60;;
1026;SDS011;502;48.746;9.214;2024-03-02T04:21:54;14.13;;;9.77;;
1026;SDS011;502;48.746;9.214;2024-03-02T04:24:20;14.50;;;10.67;;
1026;SDS011;502;48.746;9.214;2024-03-02T04:26:47;14.40;;;10.37;;
1026;SDS011;502;48.746;9.214;2024-03-02T04:29:13;16.00;;;10.60;;
1026;SDS011;502;48.746;9.214;2024-03-02T04:31:40;14.37;;;10.30;;
1026;SDS011;502;48.746;9.214;2024-03-02T04:34:06;14.90;;;10.40;;
1026;SDS011;502;48.746;9.214;2024-03-02T04:36:33;16.03;;;10.63;;
1026;SDS011;502;48.746;9.214;2024-03-02T04:39:01;13.40;;;9.77;;
1026;SDS011;502;48.746;9.214;2024-03-02T04:41:27;14.73;;;10.03;;
1026;SDS011;502;48.746;9.214;2024-03-02T04:43:54;17.77;;;10.50;;
1026;SDS011;502;48.746;9.214;2024-03-02T04:46:20;18.80;;;11.80;;
1026;SDS011;502;48.746;9.214;2024-03-02T04:48:47;16.23;;;10.40;;
1026;SDS011;502;48.746;9.214;2024-03-02T04:51:20;15.10;;;10.77;;
1026;SDS011;502;48.746;9.214;2024-03-02T04:53:46;14.07;;;10.20;;
1026;SDS011;502;48.746;9.214;2024-03-02T04:56:14;16.57;;;11.20;;
1026;SDS011;502;48.746;9.214;2024-03-02T04:58:55;15.93;;;9.90;;
1026;SDS011;502;48.746;9.214;2024-03-02T05:01:21;14.80;;;10.60;;
1026;SDS011;502;48.746;9.214;2024-03-02T05:03:48;15.90;;;10.70;;
1026;SDS011;502;48.746;9.214;2024-03-02T05:06:14;18.13;;;11.80;;
1026;SDS011;502;48.746;9.214;2024-03-02T05:08:41;18.77;;;10.10;;
1026;SDS011;502;48.746;9.214;2024-03-02T05:11:09;17.37;;;11.70;;
1026;SDS011;502;48.746;9.214;2024-03-02T05:13:55;18.73;;;11.67;;
1026;SDS011;502;48.746;9.214;2024-03-02T05:16:21;17.00;;;10.63;;
1026;SDS011;502;48.746;9.214;2024-03-02T05:18:48;15.77;;;11.10;;
1026;SDS011;502;48.746;9.214;2024-03-02T05:21:14;15.53;;;10.70;;
1026;SDS011;502;48.746;9.214;2024-03-02T05:23:41;17.50;;;11.90;;
1026;SDS011;502;48.746;9.214;2024-03-02T05:26:07;17.77;;;11.50;;
1026;SDS011;502;48.746;9.214;2024-03-02T05:28:36;16.20;;;11.77;;
1026;SDS011;502;48.746;9.214;2024-03-02T05:31:04;14.87;;;11.33;;
1026;SDS011;502;48.746;9.214;2024-03-02T05:33:30;18.87;;;12.13;;
1026;SDS011;502;48.746;9.214;2024-03-02T05:35:58;16.27;;;10.70;;
1026;SDS011;502;48.746;9.214;2024-03-02T05:38:24;19.50;;;12.90;;
1026;SDS011;502;48.746;9.214;2024-03-02T05:40:51;18.37;;;13.00;;
1026;SDS011;502;48.746;9.214;2024-03-02T05:43:17;19.07;;;12.37;;
1026;SDS011;502;48.746;9.214;2024-03-02T05:45:45;16.37;;;11.57;;
1026;SDS011;502;48.746;9.214;2024-03-02T05:48:12;19.57;;;13.80;;
1026;SDS011;502;48.746;9.214;2024-03-02T05:50:39;17.37;;;13.20;;
1026;SDS011;502;48.746;9.214;2024-03-02T05:53:05;17.37;;;13.47;;
1026;SDS011;502;48.746;9.214;2024-03-02T05:55:32;18.60;;;12.20;;
1026;SDS011;502;48.746;9.214;2024-03-02T05:57:59;18.83;;;14.43;;
1026;SDS011;502;48.746;9.214;2024-03-02T06:00:42;18.67;;;12.90;;
1026;SDS011;502;48.746;9.214;2024-03-02T06:03:09;22.73;;;14.63;;
1026;SDS011;502;48.746;9.214;2024-03-02T06:05:37;18.97;;;13.47;;
1026;SDS011;502;48.746;9.214;2024-03-02T06:08:03;16.20;;;12.30;;
1026;SDS011;502;48.746;9.214;2024-03-02T06:10:30;18.47;;;12.47;;
1026;SDS011;502;48.746;9.214;2024-03-02T06:12:57;18.83;;;12.63;;
1026;SDS011;502;48.746;9.214;2024-03-02T06:15:24;18.73;;;13.10;;
1026;SDS011;502;48.746;9.214;2024-03-02T06:17:50;18.27;;;12.03;;
1026;SDS011;502;48.746;9.214;2024-03-02T06:20:17;18.93;;;12.40;;
1026;SDS011;502;48.746;9.214;2024-03-02T06:22:44;18.90;;;11.53;;
1026;SDS011;502;48.746;9.214;2024-03-02T06:25:11;15.63;;;10.47;;
1026;SDS011;502;48.746;9.214;2024-03-02T06:27:38;14.37;;;9.10;;
1026;SDS011;502;48.746;9.214;2024-03-02T06:30:05;15.73;;;10.93;;
1026;SDS011;502;48.746;9.214;2024-03-02T06:32:33;12.47;;;9.37;;
1026;SDS011;502;48.746;9.214;2024-03-02T06:35:00;13.13;;;9.80;;
1026;SDS011;502;48.746;9.214;2024-03-02T06:37:26;13.97;;;9.43;;
1026;SDS011;502;48.746;9.214;2024-03-02T06:39:54;12.00;;;8.47;;
1026;SDS011;502;48.746;9.214;2024-03-02T06:42:20;13.23;;;8.37;;
1026;SDS011;502;48.746;9.214;2024-03-02T06:44:47;13.03;;;9.53;;
1026;SDS011;502;48.746;9.214;2024-03-02T06:47:13;13.77;;;10.30;;
1026;SDS011;502;48.746;9.214;2024-03-02T06:49:41;14.53;;;10.27;;
1026;SDS011;502;48.746;9.214;2024-03-02T06:52:08;13.40;;;10.33;;
1026;SDS011;502;48.746;9.214;2024-03-02T06:54:34;16.50;;;9.90;;
1026;SDS011;502;48.746;9.214;2024-03-02T06:57:02;15.37;;;10.50;;
1026;SDS011;502;48.746;9.214;2024-03-02T06:59:29;13.93;;;10.10;;
1026;SDS011;502;48.746;9.214;2024-03-02T07:01:56;13.83;;;9.63;;
1026;SDS011;502;48.746;9.214;2024-03-02T07:04:23;13.40;;;9.40;;
1026;SDS011;502;48.746;9.214;2024-03-02T07:06:49;12.90;;;9.57;;
1026;SDS011;502;48.746;9.214;2024-03-02T07:09:16;15.70;;;10.60;;
1026;SDS011;502;48.746;9.214;2024-03-02T07:11:43;12.07;;;9.20;;
1026;SDS011;502;48.746;9.214;2024-03-02T07:14:10;13.23;;;10.30;;
1026;SDS011;502;48.746;9.214;2024-03-02T07:16:37;13.40;;;9.53;;
1026;SDS011;502;48.746;9.214;2024-03-02T07:19:03;13.47;;;9.20;;
1026;SDS011;502;48.746;9.214;2024-03-02T07:21:31;14.67;;;10.77;;
1026;SDS011;502;48.746;9.214;2024-03-02T07:23:58;16.03;;;10.50;;
1026;SDS011;502;48.746;9.214;2024-03-02T07:26:25;14.73;;;9.97;;
1026;SDS011;502;48.746;9.214;2024-03-02T07:28:52;12.50;;;9.03;;
1026;SDS011;502;48.746;9.214;2024-03-02T07:31:19;12.73;;;8.63;;
1026;SDS011;502;48.746;9.214;2024-03-02T07:33:46;13.00;;;9.90;;
1026;SDS011;502;48.746;9.214;2024-03-02T07:36:13;10.80;;;8.40;;
1026;SDS011;502;48.746;9.214;2024-03-02T07:38:40;11.93;;;8.70;;
1026;SDS011;502;48.746;9.214;2024-03-02T07:41:06;10.70;;;7.67;;
1026;SDS011;502;48.746;9.214;2024-03-02T07:43:33;10.20;;;7.20;;
1026;SDS011;502;48.746;9.214;2024-03-02T07:46:00;9.80;;;7.20;;
1026;SDS011;502;48.746;9.214;2024-03-02T07:48:29;9.60;;;7.77;;
1026;SDS011;502;48.746;9.214;2024-03-02T07:50:56;9.57;;;6.83;;
1026;SDS011;502;48.746;9.214;2024-03-02T07:53:22;7.60;;;6.23;;
1026;SDS011;502;48.746;9.214;2024-03-02T07:55:49;9.80;;;7.00;;
1026;SDS011;502;48.746;9.214;2024-03-02T07:58:15;8.17;;;6.57;;
1026;SDS011;502;48.746;9.214;2024-03-02T08:00:43;9.00;;;6.67;;
1026;SDS011;502;48.746;9.214;2024-03-02T08:03:09;9.10;;;6.93;;
1026;SDS011;502;48.746;9.214;2024-03-02T08:05:37;9.17;;;7.40;;
1026;SDS011;502;48.746;9.214;2024-03-02T08:08:04;10.63;;;8.10;;
1026;SDS011;502;48.746;9.214;2024-03-02T08:10:31;8.13;;;6.40;;
1026;SDS011;502;48.746;9.214;2024-03-02T08:12:58;9.70;;;7.07;;
1026;SDS011;502;48.746;9.214;2024-03-02T08:15:25;9.47;;;7.13;;
1026;SDS011;502;48.746;9.214;2024-03-02T08:17:51;10.10;;;7.10;;
1026;SDS011;502;48.746;9.214;2024-03-02T08:20:18;9.20;;;7.80;;
1026;SDS011;502;48.746;9.214;2024-03-02T08:22:46;11.30;;;8.73;;
1026;SDS011;502;48.746;9.214;2024-03-02T08:25:13;9.03;;;7.90;;
1026;SDS011;502;48.746;9.214;2024-03-02T08:27:41;9.47;;;6.80;;
1026;SDS011;502;48.746;9.214;2024-03-02T08:30:07;8.83;;;7.90;;
1026;SDS011;502;48.746;9.214;2024-03-02T08:32:35;10.20;;;7.90;;
1026;SDS011;502;48.746;9.214;2024-03-02T08:35:02;11.57;;;8.30;;
1026;SDS011;502;48.746;9.214;2024-03-02T08:37:30;11.50;;;8.63;;
1026;SDS011;502;48.746;9.214;2024-03-02T08:39:58;9.33;;;6.80;;
1026;SDS011;502;48.746;9.214;2024-03-02T08:42:25;9.20;;;7.70;;
1026;SDS011;502;48.746;9.214;2024-03-02T08:44:51;8.47;;;7.13;;
1026;SDS011;502;48.746;9.214;2024-03-02T08:47:18;9.07;;;7.40;;
1026;SDS011;502;48.746;9.214;2024-03-02T08:49:44;9.33;;;7.17;;
1026;SDS011;502;48.746;9.214;2024-03-02T08:52:11;9.47;;;6.50;;
1026;SDS011;502;48.746;9.214;2024-03-02T08:54:36;7.57;;;6.40;;
1026;SDS011;502;48.746;9.214;2024-03-02T08:57:04;9.37;;;6.80;;
1026;SDS011;502;48.746;9.214;2024-03-02T08:59:32;11.27;;;6.63;;
1026;SDS011;502;48.746;9.214;2024-03-02T09:02:01;9.00;;;5.40;;
1026;SDS011;502;48.746;9.214;2024-03-02T09:04:28;7.23;;;5.87;;
1026;SDS011;502;48.746;9.214;2024-03-02T09:06:55;8.10;;;6.07;;
1026;SDS011;502;48.746;9.214;2024-03-02T09:09:21;7.37;;;6.13;;
1026;SDS011;502;48.746;9.214;2024-03-02T09:11:48;7.53;;;5.93;;
1026;SDS011;502;48.746;9.214;2024-03-02T09:14:16;9.10;;;6.77;;
1026;SDS011;502;48.746;9.214;2024-03-02T09:16:42;8.67;;;7.07;;
1026;SDS011;502;48.746;9.214;2024-03-02T09:19:09;8.90;;;6.93;;
1026;SDS011;502;48.746;9.214;2024-03-02T09:21:35;8.10;;;6.80;;
1026;SDS011;502;48.746;9.214;2024-03-02T09:24:02;8.33;;;6.90;;
1026;SDS011;502;48.746;9.214;2024-03-02T09:26:29;6.87;;;5.43;;
1026;SDS011;502;48.746;9.214;2024-03-02T09:28:55;8.07;;;6.47;;
1026;SDS011;502;48.746;9.214;2024-03-02T09:31:23;8.33;;;5.50;;
1026;SDS011;502;48.746;9.214;2024-03-02T09:33:50;9.00;;;6.67;;
1026;SDS011;502;48.746;9.214;2024-03-02T09:36:18;9.60;;;7.83;;
1026;SDS011;502;48.746;9.214;2024-03-02T09:38:44;7.80;;;6.80;;
1026;SDS011;502;48.746;9.214;2024-03-02T09:41:11;7.00;;;5.57;;
1026;SDS011;502;48.746;9.214;2024-03-02T09:43:38;9.23;;;6.37;;
1026;SDS011;502;48.746;9.214;2024-03-02T09:46:05;7.17;;;6.17;;
1026;SDS011;502;48.746;9.214;2024-03-02T09:48:33;8.57;;;6.40;;
1026;SDS011;502;48.746;9.214;2024-03-02T09:51:00;8.70;;;7.33;;
1026;SDS011;502;48.746;9.214;2024-03-02T09:53:27;7.50;;;6.70;;
1026;SDS011;502;48.746;9.214;2024-03-02T09:55:58;8.33;;;6.47;;
1026;SDS011;502;48.746;9.214;2024-03-02T09:58:25;8.17;;;6.33;;
1026;SDS011;502;48.746;9.214;2024-03-02T10:00:51;6.30;;;5.60;;
1026;SDS011;502;48.746;9.214;2024-03-02T10:03:18;7.47;;;6.70;;
1026;SDS011;502;48.746;9.214;2024-03-02T10:05:46;9.10;;;6.70;;
1026;SDS011;502;48.746;9.214;2024-03-02T10:08:12;7.47;;;6.23;;
1026;SDS011;502;48.746;9.214;2024-03-02T10:10:39;6.83;;;5.37;;
1026;SDS011;502;48.746;9.214;2024-03-02T10:13:10;6.67;;;5.97;;
1026;SDS011;502;48.746;9.214;2024-03-02T10:15:38;7.73;;;5.70;;
1026;SDS011;502;48.746;9.214;2024-03-02T10:18:09;6.50;;;5.80;;
1026;SDS011;502;48.746;9.214;2024-03-02T10:20:37;9.23;;;5.77;;
1026;SDS011;502;48.746;9.214;2024-03-02T10:23:12;6.80;;;5.17;;
1026;SDS011;502;48.746;9.214;2024-03-02T10:25:39;8.27;;;5.90;;
1026;SDS011;502;48.746;9.214;2024-03-02T10:28:06;7.73;;;6.40;;
1026;SDS011;502;48.746;9.214;2024-03-02T10:30:33;7.37;;;6.03;;
1026;SDS011;502;48.746;9.214;2024-03-02T10:33:01;6.47;;;5.73;;
1026;SDS011;502;48.746;9.214;2024-03-02T10:35:31;7.37;;;6.33;;
1026;SDS011;502;48.746;9.214;2024-03-02T10:38:01;6.40;;;5.70;;
1026;SDS011;502;48.746;9.214;2024-03-02T10:40:31;8.30;;;5.83;;
1026;SDS011;502;48.746;9.214;2024-03-02T10:42:58;7.73;;;5.83;;
1026;SDS011;502;48.746;9.214;2024-03-02T10:45:25;7.47;;;6.23;;
1026;SDS011;502;48.746;9.214;2024-03-02T10:47:52;7.07;;;5.93;;
1026;SDS011;502;48.746;9.214;2024-03-02T10:50:19;6.60;;;5.43;;
1026;SDS011;502;48.746;9.214;2024-03-02T10:52:45;6.20;;;5.60;;
1026;SDS011;502;48.746;9.214;2024-03-02T10:55:12;6.20;;;5.40;;
1026;SDS011;502;48.746;9.214;2024-03-02T10:57:42;6.60;;;6.00;;
1026;SDS011;502;48.746;9.214;2024-03-02T11:00:14;4.93;;;4.40;;
1026;SDS011;502;48.746;9.214;2024-03-02T11:02:42;5.13;;;4.63;;
1026;SDS011;502;48.746;9.214;2024-03-02T11:05:13;7.17;;;5.17;;
1026;SDS011;502;48.746;9.214;2024-03-02T11:07:51;6.43;;;5.03;;
1026;SDS011;502;48.746;9.214;2024-03-02T11:10:20;6.53;;;4.13;;
1026;SDS011;502;48.746;9.214;2024-03-02T11:12:52;6.20;;;4.00;;
1026;SDS011;502;48.746;9.214;2024-03-02T11:15:22;5.50;;;4.17;;
1026;SDS011;502;48.746;9.214;2024-03-02T11:17:51;6.50;;;4.10;;
1026;SDS011;502;48.746;9.214;2024-03-02T11:20:19;4.50;;;3.93;;
1026;SDS011;502;48.746;9.214;2024-03-02T11:22:45;3.93;;;3.23;;
1026;SDS011;502;48.746;9.214;2024-03-02T11:25:22;4.47;;;3.20;;
1026;SDS011;502;48.746;9.214;2024-03-02T11:28:00;4.10;;;3.50;;
1026;SDS011;502;48.746;9.214;2024-03-02T11:33:23;1.67;;;1.23;;
1026;SDS011;502;48.746;9.214;2024-03-02T11:35:52;2.87;;;2.07;;
1026;SDS011;502;48.746;9.214;2024-03-02T11:38:19;2.50;;;2.10;;
1026;SDS011;502;48.746;9.214;2024-03-02T11:40:45;2.80;;;1.83;;
1026;SDS011;502;48.746;9.214;2024-03-02T11:43:13;3.30;;;1.67;;
1026;SDS011;502;48.746;9.214;2024-03-02T11:45:41;1.93;;;1.30;;
1026;SDS011;502;48.746;9.214;2024-03-02T11:48:09;2.73;;;1.80;;
1026;SDS011;502;48.746;9.214;2024-03-02T11:50:40;2.50;;;1.67;;
1026;SDS011;502;48.746;9.214;2024-03-02T11:53:07;3.00;;;2.20;;
1026;SDS011;502;48.746;9.214;2024-03-02T11:55:35;1.80;;;1.57;;
1026;SDS011;502;48.746;9.214;2024-03-02T11:58:03;3.13;;;2.40;;
1026;SDS011;502;48.746;9.214;2024-03-02T12:00:31;2.53;;;2.30;;
1026;SDS011;502;48.746;9.214;2024-03-02T12:03:02;2.87;;;2.20;;
1026;SDS011;502;48.746;9.214;2024-03-02T12:05:32;1.83;;;1.47;;
1026;SDS011;502;48.746;9.214;2024-03-02T12:07:58;3.03;;;2.10;;
1026;SDS011;502;48.746;9.214;2024-03-02T12:10:26;2.20;;;1.73;;
1026;SDS011;502;48.746;9.214;2024-03-02T12:12:57;2.30;;;1.67;;
1026;SDS011;502;48.746;9.214;2024-03-02T12:15:25;2.40;;;1.83;;
1026;SDS011;502;48.746;9.214;2024-03-02T12:17:56;1.97;;;1.00;;
1026;SDS011;502;48.746;9.214;2024-03-02T12:20:24;1.87;;;1.30;;
1026;SDS011;502;48.746;9.214;2024-03-02T12:22:51;2.20;;;1.60;;
1026;SDS011;502;48.746;9.214;2024-03-02T12:25:19;2.50;;;1.97;;
1026;SDS011;502;48.746;9.214;2024-03-02T12:27:46;2.37;;;2.03;;
1026;SDS011;502;48.746;9.214;2024-03-02T12:30:13;2.50;;;1.40;;
1026;SDS011;502;48.746;9.214;2024-03-02T12:32:40;1.80;;;1.60;;
1026;SDS011;502;48.746;9.214;2024-03-02T12:35:09;2.13;;;1.93;;
1026;SDS011;502;48.746;9.214;2024-03-02T12:37:43;2.37;;;1.67;;
1026;SDS011;502;48.746;9.214;2024-03-02T12:40:10;2.77;;;2.10;;
1026;SDS011;502;48.746;9.214;2024-03-02T12:42:37;2.73;;;2.00;;
1026;SDS011;502;48.746;9.214;2024-03-02T12:45:04;2.43;;;1.80;;
1026;SDS011;502;48.746;9.214;2024-03-02T12:47:31;2.57;;;1.60;;
1026;SDS011;502;48.746;9.214;2024-03-02T12:49:58;2.00;;;1.63;;
1026;SDS011;502;48.746;9.214;2024-03-02T12:52:26;2.00;;;1.60;;
1026;SDS011;502;48.746;9.214;2024-03-02T12:54:53;1.90;;;1.40;;
1026;SDS011;502;48.746;9.214;2024-03-02T12:57:25;1.53;;;1.23;;
1026;SDS011;502;48.746;9.214;2024-03-02T12:59:52;1.97;;;1.43;;
1026;SDS011;502;48.746;9.214;2024-03-02T13:02:19;1.63;;;1.23;;
1026;SDS011;502;48.746;9.214;2024-03-02T13:04:51;3.17;;;1.80;;
1026;SDS011;502;48.746;9.214;2024-03-02T13:07:19;1.97;;;1.50;;
1026;SDS011;502;48.746;9.214;2024-03-02T13:09:48;2.00;;;1.60;;
1026;SDS011;502;48.746;9.214;2024-03-02T13:12:15;2.20;;;1.40;;
1026;SDS011;502;48.746;9.214;2024-03-02T13:14:42;1.90;;;1.43;;
1026;SDS011;502;48.746;9.214;2024-03-02T13:20:00;2.00;;;1.27;;
1026;SDS011;502;48.746;9.214;2024-03-02T13:22:29;1.80;;;1.40;;
1026;SDS011;502;48.746;9.214;2024-03-02T13:24:57;1.73;;;1.20;;
1026;SDS011;502;48.746;9.214;2024-03-02T13:27:25;2.00;;;1.37;;
1026;SDS011;502;48.746;9.214;2024-03-02T13:29:51;1.53;;;1.20;;
1026;SDS011;502;48.746;9.214;2024-03-02T13:32:18;1.63;;;1.30;;
1026;SDS011;502;48.746;9.214;2024-03-02T13:34:48;1.70;;;1.50;;
1026;SDS011;502;48.746;9.214;2024-03-02T13:37:15;1.87;;;1.40;;
1026;SDS011;502;48.746;9.214;2024-03-02T13:39:42;1.60;;;1.23;;
1026;SDS011;502;48.746;9.214;2024-03-02T13:42:10;2.53;;;1.80;;
1026;SDS011;502;48.746;9.214;2024-03-02T13:44:39;3.23;;;2.27;;
1026;SDS011;502;48.746;9.214;2024-03-02T13:47:06;2.70;;;1.53;;
1026;SDS011;502;48.746;9.214;2024-03-02T13:49:33;2.10;;;1.53;;
1026;SDS011;502;48.746;9.214;2024-03-02T13:52:01;1.90;;;1.50;;
1026;SDS011;502;48.746;9.214;2024-03-02T13:54:36;2.80;;;2.00;;
1026;SDS011;502;48.746;9.214;2024-03-02T13:57:11;1.73;;;1.40;;
1026;SDS011;502;48.746;9.214;2024-03-02T13:59:38;2.40;;;1.50;;
1026;SDS011;502;48.746;9.214;2024-03-02T14:02:06;2.00;;;1.40;;
1026;SDS011;502;48.746;9.214;2024-03-02T14:04:33;2.03;;;1.60;;
1026;SDS011;502;48.746;9.214;2024-03-02T14:07:00;2.33;;;1.60;;
1026;SDS011;502;48.746;9.214;2024-03-02T14:09:28;2.00;;;1.43;;
1026;SDS011;502;48.746;9.214;2024-03-02T14:11:56;2.50;;;1.70;;
1026;SDS011;502;48.746;9.214;2024-03-02T14:14:24;2.20;;;1.47;;
1026;SDS011;502;48.746;9.214;2024-03-02T14:16:51;2.20;;;1.60;;
1026;SDS011;502;48.746;9.214;2024-03-02T14:19:27;3.40;;;2.50;;
1026;SDS011;502;48.746;9.214;2024-03-02T14:21:55;1.73;;;1.30;;
1026;SDS011;502;48.746;9.214;2024-03-02T14:24:26;10.63;;;3.07;;
1026;SDS011;502;48.746;9.214;2024-03-02T14:26:54;1.73;;;1.20;;
1026;SDS011;502;48.746;9.214;2024-03-02T14:29:25;1.57;;;1.20;;
1026;SDS011;502;48.746;9.214;2024-03-02T14:31:51;1.20;;;0.90;;
1026;SDS011;502;48.746;9.214;2024-03-02T14:34:18;1.73;;;1.20;;
1026;SDS011;502;48.746;9.214;2024-03-02T14:36:44;1.67;;;1.23;;
1026;SDS011;502;48.746;9.214;2024-03-02T14:39:18;1.60;;;1.07;;
1026;SDS011;502;48.746;9.214;2024-03-02T14:41:45;1.60;;;0.80;;
1026;SDS011;502;48.746;9.214;2024-03-02T14:44:11;1.63;;;1.03;;
1026;SDS011;502;48.746;9.214;2024-03-02T14:46:39;1.40;;;1.00;;
1026;SDS011;502;48.746;9.214;2024-03-02T14:49:06;1.77;;;1.30;;
1026;SDS011;502;48.746;9.214;2024-03-02T14:51:33;1.40;;;1.10;;
1026;SDS011;502;48.746;9.214;2024-03-02T14:53:59;1.40;;;1.07;;
1026;SDS011;502;48.746;9.214;2024-03-02T14:56:26;1.60;;;0.90;;
1026;SDS011;502;48.746;9.214;2024-03-02T14:58:53;1.30;;;0.97;;
1026;SDS011;502;48.746;9.214;2024-03-02T15:01:20;1.50;;;0.97;;
1026;SDS011;502;48.746;9.214;2024-03-02T15:03:49;1.53;;;1.00;;
1026;SDS011;502;48.746;9.214;2024-03-02T15:06:16;2.03;;;0.90;;
1026;SDS011;502;48.746;9.214;2024-03-02T15:08:42;1.57;;;0.90;;
1026;SDS011;502;48.746;9.214;2024-03-02T15:11:11;1.33;;;0.90;;
1026;SDS011;502;48.746;9.214;2024-03-02T15:13:38;1.53;;;0.70;;
1026;SDS011;502;48.746;9.214;2024-03-02T15:16:04;2.03;;;1.40;;
1026;SDS011;502;48.746;9.214;2024-03-02T15:18:31;1.83;;;1.00;;
1026;SDS011;502;48.746;9.214;2024-03-02T15:21:01;1.90;;;1.20;;
1026;SDS011;502;48.746;9.214;2024-03-02T15:23:27;1.67;;;1.20;;
1026;SDS011;502;48.746;9.214;2024-03-02T15:25:55;1.90;;;1.33;;
1026;SDS011;502;48.746;9.214;2024-03-02T15:28:21;2.93;;;1.20;;